Latest Weather Observations for Taree Airport

IDN60801

Issued at 4:03 am EST Monday 25 July 2016 (issued every 30 minutes, with the page automatically refreshed every 10 minutes)

About weather observations | Map of weather stations | Latest weather observations for NSW | Other Formats
Station Details ID: 060141 Name: TAREE AIRPORT AWS Lat: -31.89 Lon: 152.51 Height: 8.0 m
Data from the previous 72 hours. | See also: Recent months at Taree Airport
Date/Time
EST
Temp
°C
App
Temp
°C
Dew
Point
°C
Rel
Hum
%
Delta-T
°C
Wind Press
QNH
hPa
Press
MSL
hPa
Rain since
9am
mm
Dir  Spd
km/h
Gust
km/h
Spd
kts
Gust
kts
25/04:00am 4.9 1.8 3.6 91 0.5 WSW 9 13 5 7 1013.4 1013.4 0.0
25/03:30am 5.0 2.5 3.5 90 0.6 W 6 7 3 4 1013.2 1013.2 0.0
25/03:00am 6.4 2.8 3.2 80 1.3 WNW 11 13 6 7 1013.4 1013.4 0.0
25/02:30am 5.5 2.1 3.8 89 0.7 WNW 11 13 6 7 1013.9 1013.9 0.0
25/02:00am 4.7 1.6 3.5 92 0.5 WNW 9 13 5 7 1014.2 1014.2 0.0
25/01:30am 5.1 2.1 3.9 92 0.5 WNW 9 13 5 7 1014.3 1014.3 0.0
25/01:00am 5.3 3.7 4.6 95 0.3 NNW 2 11 1 6 1014.8 1014.8 0.0
25/12:30am 5.3 2.1 5.0 98 0.1 N 11 15 6 8 1014.9 1014.9 0.0
25/12:00am 4.1 1.4 3.5 96 0.2 NNE 7 11 4 6 1015.2 1015.2 0.0
 
Date/Time
EST
Temp
°C
App
Temp
°C
Dew
Point
°C
Rel
Hum
%
Delta-T
°C
Wind Press
QNH
hPa
Press
MSL
hPa
Rain since
9am
mm
Dir  Spd
km/h
Gust
km/h
Spd
kts
Gust
kts
24/11:30pm 5.2 3.6 4.5 95 0.3 NW 2 6 1 3 1016.0 1016.0 0.0
24/11:00pm 5.3 4.1 4.6 95 0.3 CALM 0 6 0 3 1016.1 1016.1 0.0
24/10:30pm 6.0 4.8 4.5 90 0.6 CALM 0 4 0 2 1016.2 1016.2 0.0
24/10:00pm 7.0 4.7 5.6 91 0.6 W 7 9 4 5 1016.1 1016.1 0.0
24/09:30pm 6.5 5.3 4.8 89 0.7 CALM 0 0 0 0 1016.0 1016.0 0.0
24/09:00pm 7.0 5.8 4.8 86 1.0 CALM 0 0 0 0 1015.8 1015.8 0.0
24/08:30pm 7.6 6.0 4.7 82 1.3 NW 2 7 1 4 1015.6 1015.6 0.0
24/08:00pm 7.9 6.4 5.2 83 1.2 WNW 2 7 1 4 1015.5 1015.5 0.0
24/07:30pm 8.3 5.7 4.1 75 1.8 W 7 9 4 5 1015.3 1015.3 0.0
24/07:00pm 8.5 7.2 4.1 74 1.9 CALM 0 0 0 0 1014.9 1014.9 0.0
24/06:30pm 8.9 7.5 3.7 70 2.3 CALM 0 0 0 0 1014.7 1014.7 0.0
24/06:00pm 9.4 7.6 3.4 66 2.6 SSE 2 7 1 4 1014.6 1014.6 0.0
24/05:30pm 10.1 7.0 3.4 63 2.9 SSE 9 11 5 6 1014.2 1014.2 0.0
24/05:00pm 10.7 7.4 4.4 65 2.8 S 11 13 6 7 1013.8 1013.8 0.0
24/04:30pm 12.2 9.6 3.4 55 3.9 SW 6 7 3 4 1013.7 1013.7 0.0
24/04:00pm 12.4 10.1 2.8 52 4.2 NW 4 6 2 3 1013.6 1013.6 0.0
24/03:30pm 12.5 11.0 3.2 53 4.1 CALM 0 7 0 4 1013.2 1013.2 0.0
24/03:00pm 12.8 10.2 1.2 45 4.9 S 4 7 2 4 1012.8 1012.8 0.0
24/02:30pm 13.0 10.0 1.0 44 5.1 N 6 9 3 5 1013.5 1013.5 0.0
24/02:00pm 12.9 9.4 1.3 45 4.9 SW 9 15 5 8 1013.4 1013.4 0.0
24/01:30pm 13.0 9.6 1.7 46 4.9 WSW 9 13 5 7 1014.4 1014.4 0.0
24/01:00pm 13.1 9.5 0.8 43 5.2 WSW 9 17 5 9 1015.2 1015.2 0.0
24/12:30pm 13.0 10.0 1.0 44 5.1 WNW 6 9 3 5 1015.3 1015.3 0.0
24/12:00pm 12.8 9.8 0.9 44 5.0 S 6 9 3 5 1015.7 1015.7 0.0
24/11:30am 12.7 10.6 1.4 46 4.8 WNW 2 9 1 5 1016.3 1016.3 0.0
24/11:00am 12.3 9.0 0.4 44 4.9 NW 7 9 4 5 1016.6 1016.6 0.0
24/10:30am 12.3 9.8 1.6 48 4.6 W 4 9 2 5 1016.8 1016.8 0.0
24/10:00am 11.1 8.4 2.7 56 3.6 WSW 6 9 3 5 1017.2 1017.2 0.0
24/09:30am 10.7 7.8 2.8 58 3.4 WNW 7 11 4 6 1017.0 1017.0 0.0
24/09:00am 9.4 6.9 4.0 69 2.4 N 6 7 3 4 1016.9 1016.9 0.0
24/08:30am 7.6 6.4 4.4 80 1.4 CALM 0 0 0 0 1016.5 1016.5 0.0
24/08:00am 6.3 3.9 4.5 88 0.8 NNW 6 7 3 4 1016.0 1016.0 0.0
24/07:30am 5.1 2.5 3.0 86 0.9 NNE 6 7 3 4 1015.8 1015.8 0.0
24/07:00am 6.6 3.9 2.9 77 1.5 SW 6 9 3 5 1015.6 1015.6 0.0
24/06:30am 5.7 3.3 2.4 79 1.3 NNW 4 7 2 4 1015.5 1015.5 0.0
24/06:00am 6.4 4.9 3.2 80 1.3 CALM 0 0 0 0 1015.5 1015.5 0.0
24/05:30am 6.3 4.8 2.9 79 1.4 CALM 0 2 0 1 1015.6 1015.6 0.0
24/05:00am 7.1 4.2 2.6 73 1.9 WNW 7 9 4 5 1015.4 1015.4 0.0
24/04:30am 7.2 4.5 2.5 72 1.9 WNW 6 11 3 6 1015.1 1015.1 0.0
24/04:00am 7.9 5.2 2.4 68 2.3 WNW 6 9 3 5 1014.6 1014.6 0.0
24/03:30am 8.9 4.8 2.0 62 2.9 WSW 13 15 7 8 1014.3 1014.3 0.0
24/03:00am 6.2 2.7 1.5 72 1.9 W 9 11 5 6 1014.7 1014.7 0.0
24/02:30am 6.7 4.1 3.3 79 1.4 WSW 6 11 3 6 1014.8 1014.8 0.0
24/02:00am 7.4 5.8 2.7 72 2.0 CALM 0 0 0 0 1014.3 1014.3 0.0
24/01:30am 8.4 5.2 2.8 68 2.4 WSW 9 11 5 6 1014.2 1014.2 0.0
24/01:00am 7.4 4.5 2.7 72 2.0 NNE 7 11 4 6 1014.1 1014.1 0.0
24/12:30am 8.0 5.5 1.8 65 2.5 NW 4 7 2 4 1013.8 1013.8 0.0
24/12:00am 9.0 7.3 2.1 62 2.9 CALM 0 0 0 0 1013.8 1013.8 0.0
 
Date/Time
EST
Temp
°C
App
Temp
°C
Dew
Point
°C
Rel
Hum
%
Delta-T
°C
Wind Press
QNH
hPa
Press
MSL
hPa
Rain since
9am
mm
Dir  Spd
km/h
Gust
km/h
Spd
kts
Gust
kts
23/11:30pm 9.9 7.1 2.0 58 3.3 S 6 7 3 4 1013.4 1013.4 0.0
23/11:00pm 10.7 7.7 2.3 56 3.6 SSW 7 11 4 6 1013.3 1013.3 0.0
23/10:30pm 11.0 7.3 2.3 55 3.7 SSW 11 13 6 7 1012.6 1012.6 0.0
23/10:00pm 13.6 9.6 0.6 41 5.5 W 11 15 6 8 1012.3 1012.3 0.0
23/09:30pm 13.8 9.9 1.1 42 5.4 W 11 19 6 10 1011.7 1011.7 0.0
23/09:00pm 14.1 9.8 0.7 40 5.7 W 13 19 7 10 1011.4 1011.4 0.0
23/08:30pm 14.3 9.3 1.6 42 5.5 W 17 26 9 14 1010.8 1010.8 0.0
23/08:00pm 14.2 10.7 1.5 42 5.5 WNW 9 13 5 7 1010.6 1010.6 0.0
23/07:30pm 14.6 11.1 1.5 41 5.7 WNW 9 13 5 7 1010.1 1010.1 0.0
23/07:00pm 15.6 11.4 1.4 38 6.2 WNW 13 19 7 10 1009.7 1009.7 0.0
23/06:30pm 16.5 11.4 1.0 35 6.8 W 17 28 9 15 1009.1 1009.1 0.0
23/06:00pm 16.8 12.0 0.5 33 7.1 WNW 15 22 8 12 1008.4 1008.4 0.0
23/05:30pm 17.1 12.7 0.3 32 7.3 NW 13 19 7 10 1007.8 1007.8 0.0
23/05:00pm 17.8 12.6 0.0 30 7.7 WNW 17 28 9 15 1006.8 1006.8 0.0
23/04:30pm 18.8 13.2 -0.1 28 8.2 WNW 19 35 10 19 1006.1 1006.1 0.0
23/04:00pm 19.6 14.0 0.1 27 8.6 WNW 19 28 10 15 1005.6 1005.6 0.0
23/03:30pm 20.2 12.8 -0.4 25 9.0 WNW 28 43 15 23 1005.2 1005.2 0.0
23/03:05pm 20.4 12.4 0.3 26 9.0 WNW 32 50 17 27 1004.7 1004.7 0.0
23/03:00pm 20.5 12.2 -0.2 25 9.2 WNW 33 50 18 27 1004.7 1004.7 0.0
23/02:40pm 20.9 13.6 0.2 25 9.2 WNW 28 46 15 25 1004.6 1004.6 0.0
23/02:30pm 20.5 13.5 -0.7 24 9.3 W 26 41 14 22 1004.4 1004.4 0.0
23/02:00pm 20.8 14.0 0.6 26 9.1 WNW 26 43 14 23 1004.0 1004.0 0.0
23/01:48pm 20.6 13.4 0.4 26 9.0 WNW 28 50 15 27 1003.7 1003.7 0.0
23/01:30pm 20.8 13.7 1.1 27 9.0 WNW 28 41 15 22 1003.6 1003.6 0.0
23/01:00pm 20.7 13.3 1.6 28 8.8 WNW 30 52 16 28 1003.7 1003.7 0.0
23/12:33pm 20.5 13.3 0.9 27 8.8 WNW 28 48 15 26 1003.8 1003.8 0.0
23/12:30pm 20.6 13.5 1.5 28 8.7 WNW 28 50 15 27 1003.9 1003.9 0.0
23/12:00pm 20.3 12.3 0.7 27 8.8 WNW 32 52 17 28 1004.0 1004.0 0.0
23/11:59am 20.3 12.3 0.7 27 8.8 WNW 32 52 17 28 1004.0 1004.0 0.0
23/11:30am 20.6 15.1 2.0 29 8.6 W 20 30 11 16 1004.4 1004.4 0.0
23/11:00am 20.3 15.1 2.2 30 8.4 W 19 37 10 20 1004.5 1004.5 0.0
23/10:30am 20.3 13.3 1.7 29 8.5 W 28 52 15 28 1004.6 1004.6 0.0
23/10:10am 20.4 12.4 1.8 29 8.5 W 33 52 18 28 1004.3 1004.3 0.0
23/10:00am 20.4 12.0 1.8 29 8.6 W 35 52 19 28 1004.1 1004.1 0.0
23/09:30am 20.4 11.3 1.8 29 8.5 W 39 59 21 32 1003.7 1003.7 0.0
23/09:00am 21.0 11.7 3.2 31 8.5 W 41 61 22 33 1003.6 1003.6 0.0
23/08:51am 21.1 13.7 3.8 32 8.3 W 32 50 17 27 1003.5 1003.5 0.0
23/08:30am 21.5 15.8 6.6 38 7.6 WSW 26 37 14 20 1003.1 1003.1 0.0
23/08:06am 21.6 15.4 7.8 41 7.2 WSW 30 48 16 26 1002.8 1002.8 0.0
23/08:00am 21.4 15.9 9.0 45 6.6 W 28 41 15 22 1002.6 1002.6 0.0
23/07:40am 21.0 15.4 10.2 50 5.8 SW 30 56 16 30 1002.1 1002.1 0.0
23/07:30am 20.5 17.0 10.9 54 5.3 SW 20 30 11 16 1001.9 1001.9 0.0
23/07:00am 21.0 17.8 11.9 56 5.1 SW 20 28 11 15 1001.2 1001.2 0.0
23/06:30am 24.4 19.7 10.7 42 7.6 WNW 26 39 14 21 1000.1 1000.1 0.0
23/06:15am 24.8 19.7 10.7 41 7.9 WNW 28 46 15 25 999.8 999.8 0.0
23/06:00am 24.3 21.0 11.6 45 7.2 WNW 20 39 11 21 999.5 999.5 0.0
23/05:30am 24.8 20.4 11.7 44 7.4 WNW 26 46 14 25 999.1 999.1 0.0
23/05:00am 24.6 22.4 12.2 46 7.1 NW 15 20 8 11 998.9 998.9 0.0
23/04:30am 23.9 21.8 12.5 49 6.5 NW 15 20 8 11 998.4 998.4 0.0
23/04:00am 24.5 21.5 12.5 47 6.9 NW 20 28 11 15 998.5 998.5 0.0
23/03:30am 20.8 19.8 14.5 67 3.7 NW 13 17 7 9 998.6 998.6 0.0
23/03:00am 17.0 17.0 13.7 81 1.9 N 6 9 3 5 999.1 999.1 0.0
23/02:30am 17.4 18.1 13.3 77 2.3 N 2 7 1 4 999.3 999.3 0.0
23/02:00am 18.8 20.0 13.9 73 2.8 CALM 0 4 0 2 999.6 999.6 0.0
23/01:30am 18.9 18.7 13.7 72 3.0 NNE 7 11 4 6 1000.1 1000.1 0.0
23/01:00am 16.7 16.2 13.8 83 1.6 E 9 11 5 6 1000.5 1000.5 0.0
23/12:30am 18.4 18.5 13.9 75 2.6 NNE 6 7 3 4 1001.0 1001.0 0.0
23/12:00am 19.2 19.1 14.0 72 3.0 N 7 11 4 6 1001.6 1001.6 0.0
 
Date/Time
EST
Temp
°C
App
Temp
°C
Dew
Point
°C
Rel
Hum
%
Delta-T
°C
Wind Press
QNH
hPa
Press
MSL
hPa
Rain since
9am
mm
Dir  Spd
km/h
Gust
km/h
Spd
kts
Gust
kts
22/11:30pm 18.7 18.5 13.6 72 2.9 N 7 9 4 5 1002.2 1002.2 0.0
22/11:00pm 19.5 19.2 13.4 68 3.5 NNE 7 13 4 7 1002.5 1002.5 0.0
22/10:30pm 20.9 20.1 14.1 65 3.9 NNE 11 17 6 9 1002.7 1002.7 0.0
22/10:00pm 21.2 20.7 13.9 63 4.2 NNE 9 13 5 7 1003.6 1003.6 0.0
22/09:30pm 21.0 19.9 14.2 65 4.0 N 13 19 7 10 1003.7 1003.7 0.0
22/09:00pm 19.9 18.6 13.6 67 3.6 N 13 17 7 9 1003.9 1003.9 0.0
22/08:30pm 20.9 19.6 13.6 63 4.2 NNW 13 15 7 8 1004.0 1004.0 0.0
22/08:00pm 21.8 20.5 13.7 60 4.7 NNW 13 19 7 10 1004.0 1004.0 0.0
22/07:30pm 18.0 17.7 14.5 80 2.0 NE 9 11 5 6 1004.6 1004.6 0.0
22/07:00pm 18.8 18.8 14.3 75 2.6 ENE 7 9 4 5 1004.5 1004.5 0.0
22/06:30pm 19.0 18.4 14.5 75 2.6 NE 11 13 6 7 1004.5 1004.5 0.0
22/06:00pm 21.4 20.5 13.8 62 4.4 NNW 11 13 6 7 1004.6 1004.6 0.0
22/05:30pm 22.3 21.8 14.9 63 4.4 N 11 19 6 10 1004.4 1004.4 0.0
22/05:00pm 21.7 21.7 15.3 67 3.8 NNE 9 9 5 5 1004.9 1004.9 0.0
22/04:30pm 24.0 24.0 15.2 58 5.3 N 9 13 5 7 1004.8 1004.8 0.0
22/04:00pm 25.2 25.1 14.9 52 6.2 NNW 9 13 5 7 1005.0 1005.0 0.0
22/03:30pm 26.1 26.3 15.8 53 6.3 NNE 9 15 5 8 1005.2 1005.2 0.0
22/03:00pm 25.8 25.9 16.4 56 5.8 NNE 11 15 6 8 1005.4 1005.4 0.0
22/02:30pm 24.9 24.1 15.0 54 5.9 NNE 13 20 7 11 1005.7 1005.7 0.0
22/02:00pm 26.2 25.4 14.0 47 7.3 N 11 17 6 9 1006.3 1006.3 0.0
22/01:30pm 25.6 24.8 14.1 49 6.8 N 11 17 6 9 1006.7 1006.7 0.0
22/01:00pm 24.8 23.5 13.7 50 6.5 NNW 13 17 7 9 1007.6 1007.6 0.0
22/12:30pm 24.6 23.8 14.1 52 6.2 NNW 11 17 6 9 1008.3 1008.3 0.0
22/12:00pm 24.9 23.4 13.1 48 6.9 NNW 13 19 7 10 1009.0 1009.0 0.0
22/11:30am 25.5 24.0 14.3 50 6.7 WNW 15 26 8 14 1009.6 1009.6 0.0
22/11:00am 23.1 23.4 15.9 64 4.4 WNW 9 15 5 8 1010.4 1010.4 0.0
22/10:30am 19.8 21.7 15.7 77 2.4 CALM 0 0 0 0 1011.1 1011.1 0.0
22/10:00am 18.8 19.6 15.9 83 1.7 NW 6 9 3 5 1011.7 1011.7 0.0
22/09:30am 15.8 16.6 14.7 93 0.6 WSW 4 9 2 5 1012.0 1012.0 0.0
22/09:00am 13.8 14.4 13.2 96 0.3 WSW 2 7 1 4 1012.2 1012.2 0.2
22/08:30am 12.7 12.7 12.5 99 0.1 WNW 4 7 2 4 1012.4 1012.4 0.2
22/08:00am 11.1 11.5 11.1 100 0.0 CALM 0 0 0 0 1012.6 1012.6 0.2
22/07:30am 10.0 10.1 10.0 100 0.0 CALM 0 0 0 0 1012.7 1012.7 0.2
22/07:00am 9.4 8.5 9.3 99 0.0 W 4 7 2 4 1012.9 1012.9 0.2
22/06:30am 9.3 8.0 9.3 100 0.0 W 6 7 3 4 1012.7 1012.7 0.2
22/06:00am 8.3 7.9 8.2 99 0.0 CALM 0 0 0 0 1012.8 1012.8 0.2
22/05:54am 8.8 8.5 8.7 99 0.0 CALM 0 0 0 0 1012.8 1012.8 0.2
22/05:30am 8.5 8.1 8.4 99 0.0 CALM 0 6 0 3 1012.8 1012.8 0.2
22/05:20am 8.7 7.6 8.6 99 0.0 NW 4 6 2 3 1013.0 1013.0 0.2
22/05:02am 9.6 9.5 9.5 99 0.0 CALM 0 0 0 0 1013.2 1013.2 0.2
22/05:00am 9.6 9.5 9.5 99 0.0 CALM 0 0 0 0 1013.1 1013.1 0.2
22/04:43am 9.6 9.1 9.5 99 0.0 W 2 7 1 4 1013.2 1013.2 0.2
22/04:30am 9.8 8.7 9.8 100 0.0 W 6 7 3 4 1013.3 1013.3 0.2
22/04:26am 9.7 8.5 9.7 100 0.0 W 6 7 3 4 1013.4 1013.4 0.2
22/04:25am 9.8 8.7 9.8 100 0.0 W 6 7 3 4 1013.4 1013.4 0.2

Other Formats:

Comma delimited format used in spreadsheet applications
http://www.bom.gov.au/fwo/IDN60801/IDN60801.95784.axf

JavaScript Object Notation format (JSON) in row-major order
http://www.bom.gov.au/fwo/IDN60801/IDN60801.95784.json